Accueil
METAR-TAF:

METAR-TAF

Aéroports :

Péninsule de Gove, Australie

latitude: 12-16-12S, longitude: 136-49-06E, altitude: 62 m

Observation

Le bulletin a été fait il y a 34 minutes, à 17:00 UTC
Vent 16 kt de sud-est
Température 25°C
Humidité 69%
Pression 1011 hPa
Visibilité 10 km ou plus
Nuages épars à une hauteur de 3400 ft

METAR: YPGV 191700Z AUTO 13016KT 9999 // SCT034 25/19 Q1011 RF00.0/000.0

Heure: 03:04 (17:34 UTC)

Prévision

Le bulletin a été fait il y a 4 heures et 22 minutes, à 13:12 UTC
Prévision valable du 19 à 14 UTC au 20 à 02 UTC
Vent 14 kt de est/sud-est
Visibilité 10 km ou plus
Nuages épars à une hauteur de 3000 ft
A partir de 20 à 0000 UTC
Vent 16 kt de sud-est
Visibilité 10 km ou plus
Nuages épars à une hauteur de 3000 ft

TAF: YPGV 191312Z 1914/2002 12014KT 9999 SCT030 FM200000 13016KT 9999 SCT030

Observations et prévisions météorologiques de plus de 4000 aéroports (messages METAR et TAF).

Les stations disponibles sont représentées par des disques jaunes et rouges sur la carte.

Passer la souris dessus pour voir le nom de la station.

Cliquer dessus pour voir les observations et prévisions météorologiques.

Pour changer de carte: cliquez sur les boutons verts avec une croix noire pour zoomer, sur le bouton vert avec un tiret pour effectuer un zoom arrière, ou sur les flèches vertes pour les cartes adjacentes.


METAR-TAF: